Time;durP1;ratioP1;P1;durP2;ratioP2;P2;SDS_P1;SDS_P2;PMS_P1;PMS_P2;Temp;Humidity;BMP_temperature;BMP_pressure;BME280_temperature;BME280_humidity;BME280_pressure;Samples;Min_cycle;Max_cycle;Signal;HPM_P1;HPM_P2
2023/04/05 00:04:04;;;;;;;50.30;22.40;;;;;;;-2.99;66.47;99150.36;436530;1250;107192;-40
2023/04/05 00:14:11;;;;;;;37.90;19.50;;;;;;;-2.83;66.67;99134.95;436524;1251;99900;-41
2023/04/05 00:24:19;;;;;;;37.80;17.70;;;;;;;-2.70;66.43;99120.70;436449;1247;112473;-41
2023/04/05 00:34:26;;;;;;;30.70;17.70;;;;;;;-2.62;66.19;99109.64;436357;1247;109605;-40
2023/04/05 00:44:34;;;;;;;36.20;17.10;;;;;;;-2.66;66.25;99104.65;436386;1247;99212;-41
2023/04/05 00:54:42;;;;;;;57.40;24.50;;;;;;;-2.72;66.26;99094.70;436590;1247;107033;-41
2023/04/05 01:04:59;;;;;;;50.70;26.00;;;;;;;-2.87;66.32;99092.20;436621;1247;99254;-42
2023/04/05 01:15:08;;;;;;;63.90;28.10;;;;;;;-2.95;66.76;99078.91;437195;1251;111889;-41
2023/04/05 01:25:22;;;;;;;52.60;26.60;;;;;;;-2.97;66.93;99071.55;436545;1247;106716;-41
2023/04/05 01:35:28;;;;;;;64.80;28.10;;;;;;;-2.87;67.04;99061.87;436519;1247;99233;-41
2023/04/05 01:45:35;;;;;;;58.30;32.00;;;;;;;-2.99;66.95;99058.40;436532;1247;107595;-41
2023/04/05 01:55:43;;;;;;;67.00;29.60;;;;;;;-3.07;67.09;99063.77;436413;1247;98811;-40
2023/04/05 02:05:50;;;;;;;69.30;31.70;;;;;;;-3.17;67.22;99062.16;436461;1247;110914;-41
2023/04/05 02:15:57;;;;;;;70.80;35.00;;;;;;;-3.33;67.53;99053.70;436633;1247;107615;-40
2023/04/05 02:46:19;;;;;;;69.80;34.60;;;;;;;-3.92;68.03;99043.08;436554;1247;99763;-40
2023/04/05 02:56:26;;;;;;;60.00;30.40;;;;;;;-4.08;68.13;99052.12;436650;1247;111200;-40
2023/04/05 03:06:34;;;;;;;56.00;30.40;;;;;;;-4.16;68.30;99047.32;436617;1247;109919;-40
2023/04/05 03:16:41;;;;;;;67.80;31.30;;;;;;;-4.15;68.41;99040.66;436448;1247;98823;-41
2023/04/05 03:26:50;;;;;;;49.10;25.30;;;;;;;-4.09;68.66;99041.18;436489;1253;108128;-40
2023/04/05 03:36:57;;;;;;;54.50;26.60;;;;;;;-3.94;68.73;99042.23;436466;1251;98846;-41
2023/04/05 03:47:05;;;;;;;52.60;28.90;;;;;;;-3.85;68.93;99044.06;436238;1252;350727;-41
2023/04/05 03:57:12;;;;;;;60.40;30.30;;;;;;;-3.87;69.13;99043.67;436315;1247;107275;-41
2023/04/05 04:07:17;;;;;;;51.20;26.80;;;;;;;-3.94;69.16;99048.37;436433;1247;99231;-41
2023/04/05 04:17:33;;;;;;;69.00;32.50;;;;;;;-4.08;69.12;99045.95;436426;1251;108562;-41
2023/04/05 04:27:42;;;;;;;52.80;27.80;;;;;;;-4.18;69.28;99046.95;436360;1254;98012;-41
2023/04/05 04:37:51;;;;;;;48.60;25.90;;;;;;;-4.24;69.68;99047.98;436696;1248;110482;-40
2023/04/05 04:47:58;;;;;;;;;;;;;;;-4.22;69.68;99056.23;436470;1252;107835;-41
2023/04/05 04:58:08;;;;;;;81.60;37.00;;;;;;;-4.01;69.76;99054.38;436574;1247;98665;-40
2023/04/05 05:08:16;;;;;;;75.70;34.40;;;;;;;-3.40;70.01;99057.63;436431;1253;107770;-41
2023/04/05 05:18:26;;;;;;;69.10;27.60;;;;;;;-2.44;69.97;99061.84;436457;1247;97978;-40
2023/04/05 05:28:33;;;;;;;69.40;32.80;;;;;;;-0.76;70.34;99063.15;436334;1261;111598;-42
2023/04/05 05:38:41;;;;;;;68.50;32.90;;;;;;;0.76;69.85;99065.71;436506;1247;107101;-40
2023/04/05 05:48:49;;;;;;;97.70;39.30;;;;;;;1.83;69.25;99067.22;436477;1247;97988;-40
2023/04/05 05:58:58;;;;;;;81.80;38.70;;;;;;;2.84;68.79;99057.65;436563;1252;106599;-41
2023/04/05 06:09:05;;;;;;;72.10;32.00;;;;;;;3.85;68.28;99048.66;436734;1251;99231;-42
2023/04/05 06:19:12;;;;;;;60.60;29.10;;;;;;;4.58;67.25;99049.67;436541;1248;111806;-40
2023/04/05 06:29:18;;;;;;;53.10;26.90;;;;;;;5.16;66.35;99048.61;436488;1248;108045;-42
2023/04/05 06:39:25;;;;;;;39.00;22.20;;;;;;;5.23;65.41;99052.17;436503;1254;99198;-41
2023/04/05 06:49:33;;;;;;;36.80;20.50;;;;;;;5.19;64.63;99055.31;436613;1247;110530;-41
2023/04/05 06:59:40;;;;;;;39.30;20.70;;;;;;;5.43;63.97;99057.23;436434;1247;107511;-41
2023/04/05 07:09:47;;;;;;;35.90;19.00;;;;;;;5.50;63.25;99065.35;436362;1248;97976;-42
2023/04/05 07:19:55;;;;;;;38.00;19.30;;;;;;;4.77;62.42;99069.41;436390;1248;111310;-41
2023/04/05 07:30:02;;;;;;;27.20;14.20;;;;;;;4.50;62.12;99068.94;436492;1253;108181;-40
2023/04/05 07:40:11;;;;;;;13.80;7.30;;;;;;;4.32;60.33;99072.80;436388;1253;97979;-41
2023/04/05 07:50:18;;;;;;;10.10;5.80;;;;;;;3.48;59.25;99068.04;436424;1247;111547;-40
2023/04/05 08:00:23;;;;;;;12.30;6.00;;;;;;;3.78;58.70;99068.24;436549;1251;109419;-41
2023/04/05 08:10:30;;;;;;;12.10;3.70;;;;;;;4.08;57.99;99063.23;436442;1254;98022;-43
2023/04/05 08:20:40;;;;;;;18.90;8.90;;;;;;;4.08;54.83;99068.83;436531;1252;112850;-41
2023/04/05 08:30:47;;;;;;;10.60;5.20;;;;;;;4.22;53.74;99077.98;436490;1252;109621;-41
2023/04/05 08:40:55;;;;;;;8.70;4.70;;;;;;;4.86;53.54;99067.85;436410;1254;99374;-41
2023/04/05 08:51:02;;;;;;;3.90;2.80;;;;;;;4.38;52.05;99076.52;436430;1253;110825;-41
2023/04/05 09:01:10;;;;;;;2.30;1.70;;;;;;;3.82;50.52;99072.86;436352;1253;108264;-40
2023/04/05 09:11:18;;;;;;;6.20;2.70;;;;;;;3.77;52.17;99067.19;436357;1253;99253;-40
2023/04/05 09:21:28;;;;;;;9.00;2.70;;;;;;;4.08;52.55;99067.60;436318;1251;111856;-40
2023/04/05 09:31:32;;;;;;;;;;;;;;;4.29;52.08;99064.41;436406;1261;106494;-40
2023/04/05 09:41:40;;;;;;;3.10;2.30;;;;;;;4.45;52.18;99061.54;436606;1254;99209;-41
2023/04/05 09:51:48;;;;;;;21.40;3.00;;;;;;;4.57;51.90;99059.54;436565;1253;110244;-40
2023/04/05 10:01:55;;;;;;;4.40;2.60;;;;;;;4.93;52.09;99056.85;436384;1248;108844;-41
2023/04/05 10:32:27;;;;;;;6.50;2.80;;;;;;;4.57;50.74;99040.64;436598;1253;108669;-40
2023/04/05 10:42:39;;;;;;;6.30;2.40;;;;;;;4.49;50.51;99039.75;436460;1248;99203;-41
2023/04/05 10:52:48;;;;;;;4.80;3.40;;;;;;;5.11;50.14;99022.02;436531;1248;112166;-41
2023/04/05 11:13:16;;;;;;;6.30;3.30;;;;;;;5.17;48.27;99008.04;436513;1247;118286;-41
2023/04/05 11:23:25;;;;;;;10.50;4.20;;;;;;;6.36;48.47;99002.01;436472;1251;108610;-41
2023/04/05 11:33:39;;;;;;;10.10;5.00;;;;;;;5.83;47.53;99008.19;436580;1248;99214;-41
2023/04/05 11:53:53;;;;;;;9.90;4.10;;;;;;;4.91;48.50;99006.95;436621;1251;108188;-40
2023/04/05 12:04:00;;;;;;;6.40;3.90;;;;;;;5.42;48.35;98997.33;436477;1248;98850;-41
2023/04/05 12:14:08;;;;;;;15.20;4.50;;;;;;;5.79;48.34;98998.84;436558;1248;110673;-42
2023/04/05 12:24:15;;;;;;;7.70;3.30;;;;;;;5.08;46.97;99003.34;436550;1251;108472;-40
2023/04/05 12:34:26;;;;;;;7.90;3.80;;;;;;;4.44;47.45;98995.85;436557;1247;99224;-41
2023/04/05 12:44:34;;;;;;;9.40;3.70;;;;;;;4.65;47.90;98987.41;436482;1248;111160;-41
2023/04/05 12:54:41;;;;;;;8.80;3.80;;;;;;;5.14;47.66;98976.52;436423;1248;108338;-40
2023/04/05 13:04:49;;;;;;;10.40;4.70;;;;;;;5.80;47.26;98972.25;436460;1247;99260;-40
2023/04/05 13:14:57;;;;;;;8.50;5.10;;;;;;;5.74;46.44;98983.34;436480;1251;111969;-40
2023/04/05 13:25:04;;;;;;;9.10;4.20;;;;;;;5.16;47.09;98985.75;436511;1254;109220;-41
2023/04/05 13:35:10;;;;;;;11.00;4.40;;;;;;;5.18;47.27;98977.33;436534;1251;99214;-40
2023/04/05 13:45:17;;;;;;;12.40;5.00;;;;;;;5.69;46.76;98974.81;436598;1248;112165;-41
2023/04/05 13:55:24;;;;;;;13.10;5.20;;;;;;;5.84;46.09;98971.73;436460;1247;106860;-40
2023/04/05 14:05:31;;;;;;;13.80;5.00;;;;;;;5.62;46.12;98976.22;436554;1251;97970;-41
2023/04/05 14:15:38;;;;;;;6.90;4.30;;;;;;;5.59;46.27;98975.91;436434;1248;112020;-41
2023/04/05 14:25:46;;;;;;;9.40;4.50;;;;;;;5.92;46.57;98967.95;436222;1251;106748;-39
2023/04/05 14:35:53;;;;;;;13.10;5.80;;;;;;;6.14;45.37;98968.42;436611;1251;99909;-40
2023/04/05 14:46:01;;;;;;;9.40;4.60;;;;;;;5.98;45.29;98970.23;436483;1248;112055;-40
2023/04/05 15:16:23;;;;;;;7.50;4.60;;;;;;;5.71;45.01;98973.73;436434;1253;111347;-41
2023/04/05 15:26:32;;;;;;;9.50;5.00;;;;;;;5.37;45.56;98979.90;436333;1253;108521;-41
2023/04/05 15:36:39;;;;;;;13.40;5.90;;;;;;;5.11;46.13;98969.21;436352;1247;99211;-40
2023/04/05 15:46:46;;;;;;;18.60;8.80;;;;;;;4.94;46.53;98973.77;436218;1249;503495;-41
2023/04/05 15:56:55;;;;;;;12.50;5.40;;;;;;;4.76;46.77;98976.23;436421;1248;99287;-40
2023/04/05 16:07:02;;;;;;;9.00;5.60;;;;;;;4.34;45.97;98977.77;436328;1248;110929;-41
2023/04/05 16:17:10;;;;;;;8.60;5.20;;;;;;;4.24;46.50;98977.22;436392;1252;108026;-40
2023/04/05 16:27:18;;;;;;;7.80;4.50;;;;;;;4.13;46.38;98982.05;436540;1247;99267;-41
2023/04/05 16:37:25;;;;;;;10.60;5.50;;;;;;;3.93;45.90;98980.19;436241;1253;108041;-40
2023/04/05 16:57:39;;;;;;;9.50;4.80;;;;;;;3.78;47.54;98986.03;436600;1247;111482;-40
2023/04/05 17:17:53;;;;;;;7.10;3.90;;;;;;;3.35;48.50;98992.80;436545;1248;99256;-39
2023/04/05 17:28:01;;;;;;;10.00;4.80;;;;;;;3.05;48.88;98996.77;436477;1251;110569;-42
2023/04/05 17:38:09;;;;;;;16.50;5.10;;;;;;;2.74;49.32;99002.83;436497;1253;112304;-40
2023/04/05 17:48:17;;;;;;;12.90;6.40;;;;;;;2.38;49.89;99016.20;436581;1253;97934;-41
2023/04/05 17:58:27;;;;;;;15.60;6.60;;;;;;;2.00;50.57;99026.00;436575;1253;110556;-41
2023/04/05 18:08:35;;;;;;;50.80;18.50;;;;;;;1.68;51.11;99038.64;436491;1254;108444;-40
2023/04/05 18:18:42;;;;;;;65.80;29.80;;;;;;;1.30;51.37;99034.43;436538;1253;99197;-40
2023/04/05 18:28:53;;;;;;;102.40;49.40;;;;;;;1.08;52.01;99046.17;436442;1253;111810;-41
2023/04/05 18:39:02;;;;;;;68.00;33.20;;;;;;;0.90;52.52;99052.63;436531;1253;108692;-41
2023/04/05 18:49:10;;;;;;;77.00;39.10;;;;;;;0.78;53.14;99063.83;436453;1253;99349;-41
2023/04/05 18:59:17;;;;;;;90.60;48.00;;;;;;;0.50;53.97;99073.23;436357;1252;112078;-41
2023/04/05 19:19:31;;;;;;;92.20;43.40;;;;;;;-0.11;55.50;99070.52;436336;1253;97986;-41
2023/04/05 19:29:38;;;;;;;105.00;42.10;;;;;;;-0.36;56.12;99071.42;436278;1252;111994;-41
2023/04/05 19:39:47;;;;;;;82.90;38.90;;;;;;;-0.56;56.73;99067.77;436471;1253;107566;-41
2023/04/05 20:00:02;;;;;;;80.00;37.70;;;;;;;-0.90;57.73;99065.41;436620;1252;109865;-41
2023/04/05 20:10:14;;;;;;;78.00;36.50;;;;;;;-1.07;58.43;99062.69;436413;1248;99107;-41
2023/04/05 20:20:20;;;;;;;113.70;51.70;;;;;;;-1.22;58.87;99064.58;436326;1250;110945;-42
2023/04/05 20:30:27;;;;;;;161.80;65.20;;;;;;;-1.26;59.25;99062.34;436432;1247;107198;-42
2023/04/05 20:40:35;;;;;;;232.20;85.10;;;;;;;-1.23;59.67;99063.64;437232;1251;99230;-41
2023/04/05 20:50:40;;;;;;;173.10;68.70;;;;;;;-1.28;59.99;99059.08;436478;1250;108192;-41
2023/04/05 21:00:48;;;;;;;163.20;66.60;;;;;;;-1.41;60.58;99061.38;436513;1253;99208;-40
2023/04/05 21:10:55;;;;;;;179.30;69.20;;;;;;;-1.62;60.74;99065.44;436449;1250;111035;-42
2023/04/05 21:21:03;;;;;;;141.70;54.80;;;;;;;-1.83;61.12;99062.35;436320;1253;107838;-42
2023/04/05 21:41:17;;;;;;;64.50;26.50;;;;;;;-1.62;61.36;99066.64;436523;1247;106741;-41
2023/04/05 21:51:24;;;;;;;62.40;18.60;;;;;;;-1.34;61.30;99066.91;436389;1253;99499;-42
2023/04/05 22:01:31;;;;;;;30.60;15.70;;;;;;;-1.19;60.88;99061.20;436286;1252;111893;-40
2023/04/05 22:11:39;;;;;;;29.50;15.00;;;;;;;-1.15;60.81;99063.61;436213;1247;109626;-42
2023/04/05 22:21:46;;;;;;;30.10;14.90;;;;;;;-1.15;60.69;99064.48;436395;1248;99304;-41
2023/04/05 22:31:52;;;;;;;42.20;16.60;;;;;;;-1.21;60.72;99067.42;436308;1253;108155;-42
2023/04/05 22:42:00;;;;;;;37.00;16.20;;;;;;;-1.29;60.73;99067.71;436357;1247;99269;-40
2023/04/05 22:52:07;;;;;;;38.90;16.30;;;;;;;-1.41;60.94;99074.41;436363;1253;111180;-40
2023/04/05 23:02:15;;;;;;;35.10;16.40;;;;;;;-1.58;61.25;99071.10;436251;1253;107897;-42
2023/04/05 23:12:22;;;;;;;30.50;15.60;;;;;;;-1.82;61.39;99069.02;436338;1247;99312;-41
2023/04/05 23:22:29;;;;;;;27.10;14.20;;;;;;;-2.00;61.80;99064.38;436363;1253;107963;-41
2023/04/05 23:32:36;;;;;;;24.70;14.10;;;;;;;-2.03;62.17;99059.34;436273;1251;99359;-42
2023/04/05 23:42:44;;;;;;;36.60;18.60;;;;;;;-2.07;62.41;99058.67;436362;1247;111862;-42
2023/04/05 23:52:51;;;;;;;42.80;20.30;;;;;;;-2.24;62.54;99056.42;436285;1253;108474;-40
